Burna, Kentucky
Current Conditions -  °F | °C
As of 12:15 PM on Thursday 18 Dec 2014 (Local Time) from K5M9 Reporting Station
Overcast Overcast  
Wind Chill: 32°   Ceiling: 3100
Heat Index: 32°   Visibility: 10mi
Dew Point: 28°   Wind: 3mph
Humidity: 85%   Direction: 10°N
Pressure: 30.24"   Gusts: NA
Location:  37.25°N, 88.36°W
Report Text: K5M9 181815Z AUTO 01003KT 10SM OVC031 00/M02 A3024 RMK AO2 T00011021
Loading
Personal Weather Stations






























Interactive Weather Map New forecast layout! Learn more

10-Day Weather Forecast

Advertisements
Track Severe Weather on mobile